createdAt,value
2018-12-27T00:02:33.819Z,4.60
2018-12-27T00:05:49.613Z,4.70
2018-12-27T00:09:12.269Z,4.80
2018-12-27T00:12:27.662Z,4.80
2018-12-27T00:15:50.056Z,4.80
2018-12-27T00:19:05.281Z,4.90
2018-12-27T00:22:28.052Z,4.90
2018-12-27T00:25:43.454Z,4.90
2018-12-27T00:28:59.030Z,4.90
2018-12-27T00:32:21.432Z,4.90
2018-12-27T00:35:37.317Z,4.90
2018-12-27T00:38:52.856Z,4.90
2018-12-27T00:42:27.809Z,4.90
2018-12-27T00:45:50.198Z,4.80
2018-12-27T00:49:05.619Z,4.80
2018-12-27T00:52:28.389Z,4.70
2018-12-27T00:55:43.508Z,4.80
2018-12-27T00:59:06.277Z,4.80
2018-12-27T01:02:21.884Z,4.80
2018-12-27T01:05:44.304Z,4.60
2018-12-27T01:09:00.379Z,4.60
2018-12-27T01:12:22.809Z,4.60
2018-12-27T01:15:38.201Z,4.60
2018-12-27T01:19:00.709Z,4.60
2018-12-27T01:22:16.303Z,4.70
2018-12-27T01:25:39.319Z,4.80
2018-12-27T01:28:55.092Z,4.80
2018-12-27T01:32:17.559Z,5.00
2018-12-27T01:35:33.410Z,4.90
2018-12-27T01:38:56.193Z,4.90
2018-12-27T01:42:11.673Z,4.90
2018-12-27T01:45:34.127Z,4.90
2018-12-27T01:48:49.328Z,4.90
2018-12-27T01:52:12.067Z,4.90
2018-12-27T01:55:28.010Z,4.80
2018-12-27T01:58:50.390Z,4.80
2018-12-27T02:02:05.669Z,4.80
2018-12-27T02:05:28.069Z,4.80
2018-12-27T02:08:43.474Z,4.80
2018-12-27T02:12:07.026Z,4.70
2018-12-27T02:15:22.958Z,4.70
2018-12-27T02:18:38.237Z,4.60
2018-12-27T02:22:00.920Z,4.70
2018-12-27T02:25:15.894Z,4.70
2018-12-27T02:28:31.207Z,4.60
2018-12-27T02:31:53.608Z,4.70
2018-12-27T02:35:09.052Z,4.70
2018-12-27T02:38:24.955Z,4.70
2018-12-27T02:41:47.400Z,4.70
2018-12-27T02:45:03.617Z,4.70
2018-12-27T02:48:26.017Z,4.80
2018-12-27T02:51:41.714Z,4.80
2018-12-27T02:54:57.366Z,4.70
2018-12-27T02:58:19.769Z,4.60
2018-12-27T03:01:35.039Z,4.60
2018-12-27T03:04:50.655Z,4.60
2018-12-27T03:08:13.330Z,4.70
2018-12-27T03:11:29.162Z,4.70
2018-12-27T03:14:51.848Z,4.80
2018-12-27T03:18:07.582Z,4.80
2018-12-27T03:21:30.305Z,4.70
2018-12-27T03:24:45.980Z,4.70
2018-12-27T03:28:08.426Z,4.70
2018-12-27T03:31:23.530Z,4.60
2018-12-27T03:34:46.198Z,4.60
2018-12-27T03:38:01.300Z,4.60
2018-12-27T03:41:23.677Z,4.60
2018-12-27T03:44:39.192Z,4.50
2018-12-27T03:48:01.663Z,4.40
2018-12-27T03:51:17.494Z,4.30
2018-12-27T03:54:40.197Z,4.30
2018-12-27T03:57:55.402Z,4.30
2018-12-27T04:01:18.103Z,4.20
2018-12-27T04:04:33.364Z,4.30
2018-12-27T04:07:55.785Z,4.30
2018-12-27T04:11:11.285Z,4.30
2018-12-27T04:14:33.928Z,4.30
2018-12-27T04:17:49.276Z,4.40
2018-12-27T04:21:12.066Z,4.20
2018-12-27T04:24:28.023Z,4.20
2018-12-27T04:27:50.802Z,4.10
2018-12-27T04:31:06.175Z,4.20
2018-12-27T04:34:22.674Z,4.30
2018-12-27T04:37:45.397Z,4.20
2018-12-27T04:41:00.906Z,4.10
2018-12-27T04:44:24.056Z,4.20
2018-12-27T04:47:39.139Z,4.10
2018-12-27T04:51:01.527Z,3.90
2018-12-27T04:54:24.124Z,3.80
2018-12-27T04:57:46.898Z,3.70
2018-12-27T05:01:02.536Z,3.70
2018-12-27T05:04:24.935Z,3.80
2018-12-27T05:07:40.227Z,3.80
2018-12-27T05:11:03.259Z,3.80
2018-12-27T05:14:19.049Z,3.80
2018-12-27T05:17:41.759Z,3.80
2018-12-27T05:20:57.444Z,3.70
2018-12-27T05:24:19.855Z,3.70
2018-12-27T05:27:35.622Z,3.70
2018-12-27T05:30:50.964Z,3.80
2018-12-27T05:34:13.368Z,3.70
2018-12-27T05:37:29.467Z,3.70
2018-12-27T05:40:45.356Z,3.70
2018-12-27T05:44:07.756Z,3.60
2018-12-27T05:47:23.252Z,3.30
2018-12-27T05:50:38.229Z,3.30
2018-12-27T05:54:00.972Z,3.30
2018-12-27T05:57:15.970Z,3.10
2018-12-27T06:00:41.169Z,3.10
2018-12-27T06:04:16.711Z,3.20
2018-12-27T06:07:40.114Z,3.20
2018-12-27T06:10:55.734Z,3.10
2018-12-27T06:14:18.691Z,3.10
2018-12-27T06:17:34.165Z,3.00
2018-12-27T06:20:56.544Z,3.20
2018-12-27T06:24:11.698Z,3.10
2018-12-27T06:27:34.747Z,3.10
2018-12-27T06:30:50.497Z,3.20
2018-12-27T06:34:06.181Z,3.20
2018-12-27T06:37:28.581Z,3.20
2018-12-27T06:40:44.076Z,3.20
2018-12-27T06:43:59.347Z,3.20
2018-12-27T06:47:22.054Z,3.00
2018-12-27T06:50:37.990Z,3.00
2018-12-27T06:54:00.409Z,3.10
2018-12-27T06:57:15.437Z,3.10
2018-12-27T07:00:30.605Z,3.20
2018-12-27T07:03:53.312Z,3.30
2018-12-27T07:07:09.050Z,3.40
2018-12-27T07:10:31.762Z,3.30
2018-12-27T07:13:48.066Z,3.60
2018-12-27T07:17:10.819Z,3.50
2018-12-27T07:20:26.336Z,3.40
2018-12-27T07:23:48.830Z,3.40
2018-12-27T07:27:04.948Z,3.30
2018-12-27T07:30:27.827Z,3.20
2018-12-27T07:33:43.469Z,3.30
2018-12-27T07:37:05.938Z,3.40
2018-12-27T07:40:21.051Z,3.40
2018-12-27T07:43:43.480Z,3.40
2018-12-27T07:46:58.670Z,3.40
2018-12-27T07:50:21.116Z,3.40
2018-12-27T07:53:37.151Z,3.40
2018-12-27T07:56:59.928Z,3.40
2018-12-27T08:00:15.389Z,3.40
2018-12-27T08:03:37.770Z,3.40
2018-12-27T08:06:53.618Z,3.40
2018-12-27T08:10:16.716Z,3.40
2018-12-27T08:13:32.091Z,3.30
2018-12-27T08:16:54.860Z,3.60
2018-12-27T08:20:10.326Z,3.90
2018-12-27T08:23:32.769Z,3.70
2018-12-27T08:26:47.762Z,3.60
2018-12-27T08:30:10.174Z,3.60
2018-12-27T08:33:25.560Z,3.90
2018-12-27T08:36:48.391Z,4.00
2018-12-27T08:40:03.790Z,4.20
2018-12-27T08:43:26.227Z,4.20
2018-12-27T08:46:41.403Z,4.00
2018-12-27T08:49:44.339Z,3.90
2018-12-27T08:53:00.144Z,3.80
2018-12-27T08:56:22.556Z,3.80
2018-12-27T08:59:37.858Z,3.80
2018-12-27T09:06:27.397Z,3.90
2018-12-27T09:09:49.885Z,3.90
2018-12-27T09:13:05.736Z,3.80
2018-12-27T09:16:28.545Z,3.90
2018-12-27T09:19:44.388Z,3.80
2018-12-27T09:22:59.940Z,3.90
2018-12-27T09:26:22.651Z,4.00
2018-12-27T09:29:38.114Z,4.00
2018-12-27T09:32:53.357Z,4.10
2018-12-27T09:36:15.737Z,4.00
2018-12-27T09:39:31.814Z,4.00
2018-12-27T09:42:54.206Z,4.00
2018-12-27T09:46:10.134Z,4.30
2018-12-27T09:49:32.867Z,4.60
2018-12-27T09:52:48.578Z,4.50
2018-12-27T09:56:11.315Z,4.60
2018-12-27T09:59:26.974Z,4.60
2018-12-27T10:02:49.379Z,4.60
2018-12-27T10:06:04.814Z,4.80
2018-12-27T10:09:27.579Z,4.80
2018-12-27T10:12:42.782Z,4.80
2018-12-27T10:16:05.200Z,4.90
2018-12-27T10:19:20.969Z,4.90
2018-12-27T10:22:43.403Z,4.90
2018-12-27T10:25:58.748Z,5.10
2018-12-27T10:29:21.441Z,5.10
2018-12-27T10:32:36.777Z,5.20
2018-12-27T10:35:59.503Z,5.20
2018-12-27T10:39:15.082Z,5.30
2018-12-27T10:42:37.592Z,5.30
2018-12-27T10:45:53.565Z,5.30
2018-12-27T10:49:16.260Z,5.40
2018-12-27T10:52:32.363Z,5.50
2018-12-27T10:55:55.508Z,5.50
2018-12-27T10:59:12.992Z,5.60
2018-12-27T11:02:35.727Z,5.70
2018-12-27T11:05:51.292Z,5.70
2018-12-27T11:09:13.716Z,5.70
2018-12-27T11:12:29.666Z,5.80
2018-12-27T11:15:45.087Z,5.80
2018-12-27T11:19:00.944Z,5.90
2018-12-27T11:22:23.357Z,5.80
2018-12-27T11:25:38.406Z,6.00
2018-12-27T11:29:01.138Z,6.00
2018-12-27T11:32:14.872Z,6.10
2018-12-27T11:35:37.592Z,6.20
2018-12-27T11:38:53.076Z,6.30
2018-12-27T11:42:15.468Z,6.30
2018-12-27T11:45:30.592Z,6.40
2018-12-27T11:48:53.295Z,6.40
2018-12-27T11:52:08.781Z,6.50
2018-12-27T11:55:32.539Z,6.70
2018-12-27T11:58:48.472Z,6.70
2018-12-27T12:02:11.900Z,6.80
2018-12-27T12:05:27.482Z,6.80
2018-12-27T12:08:50.207Z,6.90
2018-12-27T12:12:05.937Z,6.90
2018-12-27T12:15:21.257Z,7.10
2018-12-27T12:18:36.342Z,7.10
2018-12-27T12:21:51.843Z,7.10
2018-12-27T12:25:14.273Z,7.20
2018-12-27T12:28:29.387Z,7.10
2018-12-27T12:31:44.675Z,7.20
2018-12-27T12:35:07.100Z,7.20
2018-12-27T12:38:25.198Z,7.20
2018-12-27T12:45:30.296Z,7.20
2018-12-27T12:48:52.714Z,7.30
2018-12-27T12:52:08.469Z,7.20
2018-12-27T12:55:31.760Z,7.40
2018-12-27T12:58:47.195Z,7.30
2018-12-27T13:02:10.605Z,7.40
2018-12-27T13:05:26.037Z,7.40
2018-12-27T13:08:41.785Z,7.30
2018-12-27T13:11:57.535Z,7.30
2018-12-27T13:15:13.524Z,7.30
2018-12-27T13:18:29.058Z,7.20
2018-12-27T13:21:51.831Z,7.20
2018-12-27T13:25:07.463Z,7.20
2018-12-27T13:28:23.067Z,7.10
2018-12-27T13:31:46.334Z,7.10
2018-12-27T13:35:13.123Z,7.10
2018-12-27T13:38:35.563Z,7.00
2018-12-27T13:41:50.636Z,7.10
2018-12-27T13:45:13.036Z,7.00
2018-12-27T13:48:28.558Z,6.90
2018-12-27T13:51:51.606Z,6.90
2018-12-27T13:54:54.895Z,6.80
2018-12-27T13:58:17.700Z,6.80
2018-12-27T14:01:33.183Z,6.90
2018-12-27T14:04:55.864Z,6.70
2018-12-27T14:08:11.549Z,6.80
2018-12-27T14:11:14.868Z,6.70
2018-12-27T14:14:30.860Z,6.70
2018-12-27T14:17:53.241Z,6.70
2018-12-27T14:21:08.619Z,6.60
2018-12-27T14:24:31.713Z,6.80
2018-12-27T14:27:46.873Z,6.70
2018-12-27T14:31:09.273Z,6.70
2018-12-27T14:34:25.229Z,6.70
2018-12-27T14:37:47.642Z,6.60
2018-12-27T14:41:03.013Z,6.70
2018-12-27T14:44:25.726Z,6.70
2018-12-27T14:47:43.257Z,6.50
2018-12-27T14:51:05.684Z,6.50
2018-12-27T14:54:21.376Z,6.50
2018-12-27T14:57:44.053Z,6.30
2018-12-27T15:00:59.688Z,6.40
2018-12-27T15:04:22.075Z,6.40
2018-12-27T15:07:37.666Z,6.20
2018-12-27T15:11:00.687Z,6.20
2018-12-27T15:14:16.491Z,6.10
2018-12-27T15:17:39.206Z,6.10
2018-12-27T15:20:54.384Z,6.10
2018-12-27T15:24:17.122Z,6.10
2018-12-27T15:27:32.891Z,6.00
2018-12-27T15:30:55.641Z,5.90
2018-12-27T15:34:11.397Z,5.90
2018-12-27T15:37:33.796Z,5.80
2018-12-27T15:40:49.105Z,5.60
2018-12-27T15:44:11.841Z,5.70
2018-12-27T15:47:27.817Z,5.60
2018-12-27T15:50:50.615Z,5.50
2018-12-27T15:54:06.174Z,5.50
2018-12-27T15:57:28.876Z,5.40
2018-12-27T16:00:45.313Z,5.50
2018-12-27T16:04:01.275Z,5.70
2018-12-27T16:07:17.143Z,5.40
2018-12-27T16:10:32.497Z,5.20
2018-12-27T16:13:55.191Z,5.30
2018-12-27T16:17:11.089Z,5.30
2018-12-27T16:20:33.570Z,5.20
2018-12-27T16:23:49.122Z,5.20
2018-12-27T16:27:04.300Z,5.10
2018-12-27T16:30:07.763Z,5.10
2018-12-27T16:33:23.779Z,5.10
2018-12-27T16:36:38.883Z,5.10
2018-12-27T16:40:01.583Z,5.20
2018-12-27T16:43:17.212Z,5.10
2018-12-27T16:46:39.952Z,5.00
2018-12-27T16:49:55.786Z,5.00
2018-12-27T16:53:11.005Z,5.00
2018-12-27T16:56:33.405Z,4.90
2018-12-27T16:59:49.243Z,4.90
2018-12-27T17:03:11.649Z,5.10
2018-12-27T17:06:14.598Z,5.00
2018-12-27T17:09:36.995Z,5.00
2018-12-27T17:12:52.691Z,5.00
2018-12-27T17:16:15.106Z,4.90
2018-12-27T17:19:30.461Z,4.90
2018-12-27T17:22:52.872Z,5.00
2018-12-27T17:26:08.606Z,5.00
2018-12-27T17:29:31.049Z,4.90
2018-12-27T17:32:47.275Z,4.90
2018-12-27T17:36:09.658Z,4.80
2018-12-27T17:39:25.373Z,4.90
2018-12-27T17:42:48.050Z,4.90
2018-12-27T17:46:03.746Z,4.90
2018-12-27T17:49:26.160Z,4.80
2018-12-27T17:52:41.575Z,4.70
2018-12-27T17:56:03.965Z,4.90
2018-12-27T17:59:19.927Z,4.80
2018-12-27T18:02:42.640Z,5.00
2018-12-27T18:05:58.008Z,5.30
2018-12-27T18:09:20.407Z,5.00
2018-12-27T18:12:35.465Z,4.90
2018-12-27T18:15:57.853Z,4.90
2018-12-27T18:19:13.920Z,4.80
2018-12-27T18:22:36.326Z,4.70
2018-12-27T18:25:51.884Z,4.60
2018-12-27T18:29:15.284Z,4.60
2018-12-27T18:32:30.381Z,4.60
2018-12-27T18:35:52.798Z,4.60
2018-12-27T18:39:08.223Z,4.60
2018-12-27T18:42:30.953Z,4.60
2018-12-27T18:45:46.395Z,4.70
2018-12-27T18:49:09.394Z,4.60
2018-12-27T18:52:24.909Z,4.60
2018-12-27T18:55:47.626Z,4.60
2018-12-27T18:59:02.857Z,4.50
2018-12-27T19:02:25.254Z,4.40
2018-12-27T19:05:40.677Z,4.40
2018-12-27T19:09:05.716Z,4.40
2018-12-27T19:12:40.749Z,4.30
2018-12-27T19:16:03.471Z,4.40
2018-12-27T19:19:19.476Z,4.40
2018-12-27T19:23:05.290Z,4.40
2018-12-27T19:26:20.992Z,4.30
2018-12-27T19:29:43.820Z,4.30
2018-12-27T19:32:59.448Z,4.30
2018-12-27T19:36:21.822Z,4.20
2018-12-27T19:39:37.002Z,4.20
2018-12-27T19:43:00.587Z,4.10
2018-12-27T19:46:16.756Z,4.10
2018-12-27T19:49:39.479Z,4.00
2018-12-27T19:52:55.245Z,4.20
2018-12-27T19:56:10.413Z,4.20
2018-12-27T19:59:25.651Z,4.30
2018-12-27T20:02:40.842Z,4.30
2018-12-27T20:05:56.199Z,4.30
2018-12-27T20:09:18.602Z,4.30
2018-12-27T20:12:34.551Z,4.20
2018-12-27T20:15:49.798Z,4.20
2018-12-27T20:19:12.890Z,4.10
2018-12-27T20:22:28.417Z,4.10
2018-12-27T20:25:43.650Z,4.00
2018-12-27T20:29:07.436Z,4.00
2018-12-27T20:32:22.790Z,4.00
2018-12-27T20:35:38.644Z,4.20
2018-12-27T20:39:01.449Z,4.30
2018-12-27T20:42:18.881Z,4.40
2018-12-27T20:45:41.631Z,4.40
2018-12-27T20:48:57.796Z,4.40
2018-12-27T20:52:20.235Z,4.30
2018-12-27T20:55:36.108Z,4.30
2018-12-27T20:58:51.555Z,4.30
2018-12-27T21:01:54.515Z,4.40
2018-12-27T21:05:17.176Z,4.30
2018-12-27T21:08:32.299Z,4.20
2018-12-27T21:11:55.045Z,4.30
2018-12-27T21:15:10.097Z,4.40
2018-12-27T21:18:33.156Z,4.50
2018-12-27T21:21:48.606Z,4.50
2018-12-27T21:25:11.566Z,4.60
2018-12-27T21:28:28.014Z,4.60
2018-12-27T21:31:51.462Z,4.70
2018-12-27T21:35:07.131Z,4.70
2018-12-27T21:38:29.918Z,4.50
2018-12-27T21:41:45.592Z,4.40
2018-12-27T21:45:07.997Z,4.30
2018-12-27T21:48:23.493Z,4.30
2018-12-27T21:51:45.904Z,4.50
2018-12-27T21:55:01.377Z,4.60
2018-12-27T21:58:23.781Z,4.60
2018-12-27T22:01:39.108Z,4.50
2018-12-27T22:05:01.830Z,4.50
2018-12-27T22:08:18.167Z,4.50
2018-12-27T22:11:40.577Z,4.60
2018-12-27T22:14:56.205Z,4.50
2018-12-27T22:18:18.978Z,4.30
2018-12-27T22:21:34.992Z,4.20
2018-12-27T22:24:58.078Z,4.20
2018-12-27T22:28:13.130Z,4.20
2018-12-27T22:31:35.853Z,4.20
2018-12-27T22:34:50.960Z,4.20
2018-12-27T22:38:14.389Z,4.20
2018-12-27T22:41:29.568Z,4.20
2018-12-27T22:44:52.228Z,4.20
2018-12-27T22:48:07.775Z,4.20
2018-12-27T22:51:22.985Z,4.30
2018-12-27T22:54:38.154Z,4.40
2018-12-27T22:58:00.629Z,4.10
2018-12-27T23:01:16.128Z,4.00
2018-12-27T23:04:38.513Z,4.10
2018-12-27T23:07:53.986Z,4.10
2018-12-27T23:10:57.905Z,4.10
2018-12-27T23:14:15.307Z,4.00
2018-12-27T23:17:37.708Z,4.10
2018-12-27T23:20:52.922Z,4.10
2018-12-27T23:24:15.644Z,4.20
2018-12-27T23:27:31.475Z,4.20
2018-12-27T23:30:53.872Z,4.20
2018-12-27T23:34:08.989Z,4.10
2018-12-27T23:37:31.398Z,4.20
2018-12-27T23:40:49.423Z,4.30
2018-12-27T23:44:11.825Z,4.00
2018-12-27T23:47:27.396Z,4.00
2018-12-27T23:50:43.035Z,3.90
2018-12-27T23:53:59.620Z,3.80
2018-12-27T23:57:21.990Z,4.00
